This is the latest recevied weather packets stored in our database for station/object IK6ZNK-3. If no packets are shown the sender has not sent any weather packets the latest 10 day(s).
| Time | Temp. | Humidity | Pressure | Rain* | Wind** | Luminosity | Snow |
|---|---|---|---|---|---|---|---|
| 1777882807 | 21.67° C | 44% | 1011.3 hPa | 0 mm | - | - | - |
| 1777882207 | 21.67° C | 44% | 1011 hPa | 0 mm | - | - | - |
| 1777881607 | 21.67° C | 45% | 1011 hPa | 0 mm | - | - | - |
| 1777881006 | 21.67° C | 45% | 1011 hPa | 0 mm | - | - | - |
| 1777880407 | 21.67° C | 44% | 1010.8 hPa | 0 mm | - | - | - |
| 1777879807 | 21.67° C | 43% | 1010.8 hPa | 0 mm | - | - | - |
| 1777879207 | 21.67° C | 49% | 1010.7 hPa | 0 mm | - | - | - |
| 1777878607 | 22.22° C | 45% | 1010.7 hPa | 0 mm | - | - | - |
| 1777878007 | 21.67° C | 55% | 1010.7 hPa | 0 mm | - | - | - |
| 1777877407 | 20.56° C | 57% | 1010.6 hPa | 0 mm | - | - | - |
| 1777876807 | 20° C | 56% | 1010.5 hPa | 0 mm | - | - | - |
| 1777876207 | 20.56° C | 55% | 1010.4 hPa | 0 mm | - | - | - |
| 1777875606 | 21.67° C | 48% | 1010.5 hPa | 0 mm | - | - | - |
| 1777875006 | 20.56° C | 51% | 1010.3 hPa | 0 mm | - | - | - |
| 1777874406 | 20° C | 54% | 1010.4 hPa | 0 mm | - | - | - |
| 1777873806 | 21.11° C | 47% | 1010.4 hPa | 0 mm | - | - | - |
| 1777873207 | 19.44° C | 48% | 1010.1 hPa | 0 mm | - | - | - |
| 1777872607 | 18.89° C | 47% | 1009.9 hPa | 0 mm | - | - | - |
| 1777872007 | 19.44° C | 47% | 1010.2 hPa | 0 mm | - | - | - |
| 1777871407 | 19.44° C | 48% | 1010 hPa | 0 mm | - | - | - |
| 1777870807 | 18.33° C | 49% | 1010 hPa | 0 mm | - | - | - |
| 1777870206 | 16.67° C | 51% | 1009.9 hPa | 0 mm | - | - | - |
| 1777869606 | 16.11° C | 53% | 1009.9 hPa | 0 mm | - | - | - |
| 1777869006 | 16.11° C | 55% | 1009.8 hPa | 0 mm | - | - | - |
| 1777868406 | 16.11° C | 55% | 1009.8 hPa | 0 mm | - | - | - |
* Rain latest hour (hover to see other rain measurements)
** Current wind speed in m/s (hover to see current wind gust speed)